createdAt,value
2018-10-17T00:02:14.117Z,60.00
2018-10-17T00:04:43.324Z,60.66
2018-10-17T00:07:12.616Z,59.83
2018-10-17T00:09:41.761Z,61.40
2018-10-17T00:12:10.913Z,62.79
2018-10-17T00:14:40.121Z,65.47
2018-10-17T00:17:09.832Z,66.80
2018-10-17T00:19:39.304Z,64.48
2018-10-17T00:22:08.952Z,64.92
2018-10-17T00:24:38.137Z,63.05
2018-10-17T00:27:07.383Z,62.45
2018-10-17T00:29:36.684Z,61.92
2018-10-17T00:32:05.864Z,61.85
2018-10-17T00:34:35.045Z,61.68
2018-10-17T00:37:04.331Z,62.05
2018-10-17T00:39:33.524Z,61.40
2018-10-17T00:42:02.652Z,63.77
2018-10-17T00:44:31.904Z,64.68
2018-10-17T00:47:01.087Z,63.59
2018-10-17T00:49:30.188Z,62.90
2018-10-17T00:51:59.386Z,63.09
2018-10-17T00:54:28.505Z,62.77
2018-10-17T00:56:57.695Z,63.04
2018-10-17T00:59:27.357Z,62.58
2018-10-17T01:01:56.532Z,61.27
2018-10-17T01:04:25.681Z,61.65
2018-10-17T01:06:54.989Z,62.56
2018-10-17T01:09:24.103Z,61.56
2018-10-17T01:11:53.276Z,61.41
2018-10-17T01:14:22.398Z,63.36
2018-10-17T01:16:51.539Z,64.23
2018-10-17T01:19:20.650Z,64.32
2018-10-17T01:21:49.830Z,63.88
2018-10-17T01:24:18.945Z,62.72
2018-10-17T01:26:48.144Z,64.60
2018-10-17T01:29:17.318Z,64.35
2018-10-17T01:31:46.489Z,65.16
2018-10-17T01:34:15.609Z,64.09
2018-10-17T01:36:44.765Z,63.63
2018-10-17T01:39:13.928Z,63.20
2018-10-17T01:41:43.089Z,63.15
2018-10-17T01:44:12.230Z,62.15
2018-10-17T01:46:41.400Z,62.59
2018-10-17T01:49:10.548Z,62.44
2018-10-17T01:51:39.684Z,61.94
2018-10-17T01:54:08.841Z,62.42
2018-10-17T01:56:38.025Z,62.17
2018-10-17T01:59:07.716Z,62.98
2018-10-17T02:01:36.877Z,62.91
2018-10-17T02:04:06.216Z,64.04
2018-10-17T02:06:35.385Z,65.41
2018-10-17T02:09:05.669Z,65.23
2018-10-17T02:11:34.857Z,64.84
2018-10-17T02:14:04.103Z,63.54
2018-10-17T02:16:33.158Z,64.24
2018-10-17T02:19:02.558Z,64.16
2018-10-17T02:21:31.665Z,65.80
2018-10-17T02:24:00.793Z,66.95
2018-10-17T02:26:29.877Z,66.25
2018-10-17T02:28:59.075Z,68.67
2018-10-17T02:31:28.162Z,68.45
2018-10-17T02:33:57.309Z,68.06
2018-10-17T02:36:26.379Z,68.01
2018-10-17T02:38:55.525Z,67.90
2018-10-17T02:41:24.609Z,66.69
2018-10-17T02:43:53.847Z,65.80
2018-10-17T02:46:22.934Z,65.50
2018-10-17T02:48:52.131Z,63.69
2018-10-17T02:51:21.204Z,64.46
2018-10-17T02:53:50.340Z,64.74
2018-10-17T02:56:19.434Z,64.34
2018-10-17T02:58:48.565Z,64.43
2018-10-17T03:01:17.771Z,63.81
2018-10-17T03:03:47.021Z,63.45
2018-10-17T03:06:16.146Z,64.93
2018-10-17T03:08:45.275Z,63.79
2018-10-17T03:11:14.386Z,63.00
2018-10-17T03:13:43.498Z,63.37
2018-10-17T03:16:12.692Z,64.00
2018-10-17T03:18:41.875Z,64.18
2018-10-17T03:21:11.005Z,64.29
2018-10-17T03:23:40.170Z,63.58
2018-10-17T03:26:09.286Z,63.18
2018-10-17T03:28:38.432Z,64.97
2018-10-17T03:31:07.594Z,65.43
2018-10-17T03:33:36.751Z,63.73
2018-10-17T03:36:05.882Z,64.20
2018-10-17T03:38:35.024Z,63.82
2018-10-17T03:41:04.195Z,65.26
2018-10-17T03:43:33.309Z,65.15
2018-10-17T03:46:02.362Z,65.61
2018-10-17T03:48:31.501Z,67.46
2018-10-17T03:51:00.562Z,69.22
2018-10-17T03:53:29.680Z,70.36
2018-10-17T03:55:58.780Z,69.46
2018-10-17T03:58:28.091Z,67.99
2018-10-17T04:00:57.195Z,67.48
2018-10-17T04:03:26.299Z,67.19
2018-10-17T04:05:55.399Z,66.95
2018-10-17T04:08:24.577Z,68.71
2018-10-17T04:11:11.940Z,68.22
2018-10-17T04:13:41.070Z,67.78
2018-10-17T04:16:10.179Z,66.59
2018-10-17T04:18:39.335Z,65.64
2018-10-17T04:21:08.580Z,65.71
2018-10-17T04:23:37.713Z,65.91
2018-10-17T04:26:06.788Z,66.57
2018-10-17T04:28:37.696Z,68.04
2018-10-17T04:31:06.950Z,66.67
2018-10-17T04:33:36.078Z,67.61
2018-10-17T04:36:05.248Z,67.03
2018-10-17T04:38:34.495Z,66.71
2018-10-17T04:41:03.636Z,65.87
2018-10-17T04:43:32.754Z,66.67
2018-10-17T04:46:01.847Z,66.92
2018-10-17T04:48:30.984Z,66.84
2018-10-17T04:51:00.173Z,66.71
2018-10-17T04:53:29.397Z,66.11
2018-10-17T04:55:58.479Z,66.56
2018-10-17T04:58:27.608Z,66.48
2018-10-17T05:00:56.673Z,67.81
2018-10-17T05:03:25.858Z,67.13
2018-10-17T05:05:54.941Z,66.98
2018-10-17T05:08:24.070Z,66.83
2018-10-17T05:10:53.259Z,66.31
2018-10-17T05:13:22.390Z,66.62
2018-10-17T05:15:51.547Z,65.73
2018-10-17T05:18:20.676Z,66.58
2018-10-17T05:20:49.829Z,66.21
2018-10-17T05:23:18.938Z,66.31
2018-10-17T05:25:48.095Z,66.83
2018-10-17T05:28:17.193Z,66.48
2018-10-17T05:30:46.356Z,66.33
2018-10-17T05:33:15.432Z,65.83
2018-10-17T05:35:44.561Z,65.99
2018-10-17T05:38:14.540Z,65.46
2018-10-17T05:40:43.785Z,66.00
2018-10-17T05:43:13.014Z,65.67
2018-10-17T05:45:42.223Z,65.74
2018-10-17T05:48:11.384Z,65.97
2018-10-17T05:50:40.600Z,66.48
2018-10-17T05:53:09.722Z,66.29
2018-10-17T05:55:38.954Z,66.58
2018-10-17T05:58:08.153Z,65.82
2018-10-17T06:00:37.412Z,65.64
2018-10-17T06:03:06.983Z,65.82
2018-10-17T06:05:36.172Z,66.18
2018-10-17T06:08:05.600Z,66.54
2018-10-17T06:10:34.808Z,65.66
2018-10-17T06:13:04.558Z,66.58
2018-10-17T06:15:33.712Z,65.85
2018-10-17T06:18:03.003Z,64.99
2018-10-17T06:20:32.885Z,64.03
2018-10-17T06:23:02.083Z,64.81
2018-10-17T06:25:31.557Z,64.95
2018-10-17T06:28:00.767Z,66.90
2018-10-17T06:30:29.978Z,65.80
2018-10-17T06:32:59.326Z,64.86
2018-10-17T06:35:28.547Z,64.52
2018-10-17T06:37:57.647Z,64.20
2018-10-17T06:40:26.847Z,65.08
2018-10-17T06:42:56.121Z,66.22
2018-10-17T06:45:25.316Z,66.87
2018-10-17T06:47:54.457Z,65.82
2018-10-17T06:50:23.626Z,65.22
2018-10-17T06:52:52.815Z,64.50
2018-10-17T06:55:23.005Z,63.61
2018-10-17T06:57:52.185Z,64.28
2018-10-17T07:00:21.475Z,64.24
2018-10-17T07:02:50.664Z,62.68
2018-10-17T07:05:19.989Z,63.15
2018-10-17T07:07:49.128Z,64.18
2018-10-17T07:10:18.312Z,64.34
2018-10-17T07:12:48.211Z,65.79
2018-10-17T07:15:17.467Z,65.27
2018-10-17T07:17:46.553Z,64.39
2018-10-17T07:20:15.781Z,63.80
2018-10-17T07:22:44.897Z,62.02
2018-10-17T07:25:14.131Z,62.05
2018-10-17T07:27:43.271Z,61.63
2018-10-17T07:30:13.427Z,60.95
2018-10-17T07:32:42.653Z,62.28
2018-10-17T07:35:11.910Z,61.26
2018-10-17T07:37:41.164Z,60.96
2018-10-17T07:40:10.309Z,60.64
2018-10-17T07:42:39.539Z,59.84
2018-10-17T07:45:09.056Z,58.93
2018-10-17T07:47:38.316Z,58.45
2018-10-17T07:50:08.030Z,58.89
2018-10-17T07:52:37.196Z,57.54
2018-10-17T07:55:07.214Z,59.65
2018-10-17T07:57:36.432Z,59.34
2018-10-17T08:44:56.521Z,55.24
2018-10-17T08:47:25.498Z,56.64
2018-10-17T08:49:54.716Z,54.58
2018-10-17T08:52:23.660Z,55.59
2018-10-17T08:54:52.585Z,54.17
2018-10-17T08:57:21.537Z,53.58
2018-10-17T08:59:50.453Z,52.88
2018-10-17T09:02:19.382Z,52.36
2018-10-17T09:04:48.319Z,53.83
2018-10-17T09:07:17.324Z,52.31
2018-10-17T09:09:46.204Z,50.67
2018-10-17T09:12:15.219Z,50.47
2018-10-17T09:14:44.089Z,50.15
2018-10-17T09:17:13.034Z,51.37
2018-10-17T09:19:42.095Z,48.48
2018-10-17T09:22:11.301Z,49.17
2018-10-17T09:24:39.861Z,49.25
2018-10-17T09:27:08.822Z,50.82
2018-10-17T09:29:37.707Z,50.32
2018-10-17T09:32:06.850Z,48.53
2018-10-17T09:34:35.756Z,47.88
2018-10-17T09:37:04.694Z,47.19
2018-10-17T09:39:33.600Z,46.11
2018-10-17T09:42:02.661Z,46.37
2018-10-17T09:44:31.702Z,45.31
2018-10-17T09:47:00.742Z,45.51
2018-10-17T09:49:29.668Z,49.60
2018-10-17T09:51:58.669Z,47.55
2018-10-17T09:54:27.621Z,46.89
2018-10-17T09:56:56.649Z,46.26
2018-10-17T09:59:25.596Z,45.65
2018-10-17T10:01:54.802Z,45.03
2018-10-17T10:04:24.150Z,44.36
2018-10-17T10:06:53.200Z,43.69
2018-10-17T10:09:22.396Z,43.26
2018-10-17T10:11:51.655Z,43.45
2018-10-17T10:14:21.225Z,42.10
2018-10-17T10:16:50.185Z,43.93
2018-10-17T10:19:19.148Z,44.30
2018-10-17T10:21:48.111Z,42.38
2018-10-17T10:24:17.150Z,41.81
2018-10-17T10:26:46.094Z,40.78
2018-10-17T10:29:15.006Z,41.39
2018-10-17T10:31:43.975Z,40.36
2018-10-17T10:34:13.001Z,38.98
2018-10-17T10:36:41.916Z,41.03
2018-10-17T10:39:12.010Z,39.74
2018-10-17T10:41:41.390Z,39.46
2018-10-17T10:44:10.398Z,38.47
2018-10-17T10:46:39.337Z,38.56
2018-10-17T10:49:08.334Z,40.39
2018-10-17T10:51:37.340Z,38.67
2018-10-17T10:54:06.379Z,38.74
2018-10-17T10:56:35.382Z,37.79
2018-10-17T10:59:04.420Z,37.40
2018-10-17T11:01:33.395Z,38.27
2018-10-17T11:04:02.314Z,38.70
2018-10-17T11:06:31.316Z,37.01
2018-10-17T11:09:00.312Z,38.38
2018-10-17T11:11:29.271Z,38.67
2018-10-17T11:13:58.285Z,38.34
2018-10-17T11:16:27.268Z,39.05
2018-10-17T11:18:56.196Z,39.02
2018-10-17T11:21:25.172Z,38.24
2018-10-17T11:23:54.140Z,39.77
2018-10-17T11:26:23.146Z,37.16
2018-10-17T11:28:52.365Z,36.00
2018-10-17T11:31:21.421Z,35.77
2018-10-17T11:33:50.377Z,38.33
2018-10-17T11:36:19.332Z,36.32
2018-10-17T11:38:48.265Z,34.74
2018-10-17T11:41:17.291Z,35.76
2018-10-17T11:43:46.247Z,34.61
2018-10-17T11:46:15.188Z,33.07
2018-10-17T11:48:44.195Z,34.55
2018-10-17T11:51:13.142Z,36.74
2018-10-17T11:53:42.053Z,35.40
2018-10-17T11:56:10.978Z,33.40
2018-10-17T11:58:39.962Z,32.55
2018-10-17T12:01:08.936Z,35.04
2018-10-17T12:03:37.891Z,34.12
2018-10-17T12:06:07.176Z,34.91
2018-10-17T12:08:36.104Z,36.13
2018-10-17T12:11:05.161Z,34.11
2018-10-17T12:13:34.123Z,33.67
2018-10-17T12:16:03.045Z,33.14
2018-10-17T12:18:32.062Z,32.39
2018-10-17T12:21:01.024Z,33.12
2018-10-17T12:23:29.982Z,31.08
2018-10-17T12:25:58.879Z,30.73
2018-10-17T12:28:27.913Z,30.13
2018-10-17T12:30:56.844Z,29.81
2018-10-17T12:33:25.855Z,31.27
2018-10-17T12:35:54.758Z,31.45
2018-10-17T12:38:23.693Z,31.10
2018-10-17T12:40:52.751Z,28.97
2018-10-17T12:43:21.566Z,28.52
2018-10-17T12:45:50.596Z,29.77
2018-10-17T12:48:19.485Z,28.05
2018-10-17T12:50:48.394Z,28.57
2018-10-17T12:53:17.374Z,28.26
2018-10-17T12:55:46.333Z,28.56
2018-10-17T12:58:15.340Z,28.67
2018-10-17T13:00:44.242Z,29.82
2018-10-17T13:03:13.270Z,28.16
2018-10-17T13:05:42.193Z,26.01
2018-10-17T13:08:11.171Z,27.04
2018-10-17T13:10:40.080Z,28.27
2018-10-17T13:13:09.061Z,31.73
2018-10-17T13:15:37.959Z,30.07
2018-10-17T13:18:06.949Z,27.70
2018-10-17T13:20:35.896Z,26.46
2018-10-17T13:23:04.905Z,26.36
2018-10-17T13:25:33.805Z,24.89
2018-10-17T13:28:02.773Z,25.25
2018-10-17T13:30:31.689Z,25.08
2018-10-17T13:33:01.049Z,25.15
2018-10-17T13:35:30.402Z,24.06
2018-10-17T13:37:59.390Z,24.71
2018-10-17T13:40:28.302Z,23.05
2018-10-17T13:42:57.352Z,25.39
2018-10-17T13:45:26.279Z,25.66
2018-10-17T13:47:55.237Z,24.87
2018-10-17T13:50:24.278Z,25.26
2018-10-17T13:52:53.322Z,25.35
2018-10-17T13:55:22.389Z,25.26
2018-10-17T13:57:51.414Z,24.37
2018-10-17T14:00:20.211Z,26.83
2018-10-17T14:02:49.237Z,26.54
2018-10-17T14:05:18.469Z,24.29
2018-10-17T14:07:47.430Z,24.34
2018-10-17T14:10:16.374Z,23.77
2018-10-17T14:12:45.362Z,22.13
2018-10-17T14:15:14.361Z,20.99
2018-10-17T14:17:43.401Z,23.09
2018-10-17T14:20:12.369Z,23.26
2018-10-17T14:22:41.350Z,22.69
2018-10-17T14:25:10.342Z,22.79
2018-10-17T14:27:39.428Z,24.06
2018-10-17T14:30:08.958Z,24.42
2018-10-17T14:32:37.986Z,24.60
2018-10-17T14:35:09.277Z,25.32
2018-10-17T14:37:38.317Z,25.77
2018-10-17T14:40:07.350Z,27.18
2018-10-17T14:42:36.367Z,24.63
2018-10-17T14:45:06.039Z,24.50
2018-10-17T14:47:35.001Z,26.18
2018-10-17T14:50:03.921Z,26.54
2018-10-17T14:52:32.823Z,26.22
2018-10-17T14:55:01.796Z,26.87
2018-10-17T14:57:31.125Z,27.63
2018-10-17T15:00:00.102Z,27.93
2018-10-17T15:02:29.924Z,28.86
2018-10-17T15:04:58.976Z,28.74
2018-10-17T15:07:27.942Z,29.10
2018-10-17T15:09:56.954Z,29.13
2018-10-17T15:12:27.678Z,29.22
2018-10-17T15:14:56.697Z,29.17
2018-10-17T15:17:25.943Z,28.61
2018-10-17T15:19:54.980Z,28.02
2018-10-17T15:22:23.912Z,28.53
2018-10-17T15:24:52.915Z,28.76
2018-10-17T15:27:21.903Z,28.38
2018-10-17T15:29:50.871Z,26.53
2018-10-17T15:32:19.953Z,27.89
2018-10-17T15:34:48.987Z,27.18
2018-10-17T15:37:17.910Z,27.56
2018-10-17T15:39:46.921Z,27.87
2018-10-17T15:42:15.907Z,30.51
2018-10-17T15:44:44.914Z,31.06
2018-10-17T15:47:14.371Z,31.72
2018-10-17T15:49:43.830Z,32.13
2018-10-17T15:52:13.125Z,32.12
2018-10-17T15:54:42.470Z,31.95
2018-10-17T15:57:11.690Z,32.64
2018-10-17T15:59:40.766Z,32.31
2018-10-17T16:02:10.044Z,32.34
2018-10-17T16:04:39.370Z,32.75
2018-10-17T16:07:08.755Z,33.42
2018-10-17T16:09:38.191Z,34.22
2018-10-17T16:12:07.573Z,34.09
2018-10-17T16:14:37.263Z,34.67
2018-10-17T16:17:06.663Z,34.69
2018-10-17T16:19:35.917Z,35.54
2018-10-17T16:22:05.079Z,35.55
2018-10-17T16:24:34.442Z,36.11
2018-10-17T16:27:03.793Z,36.95
2018-10-17T16:29:33.312Z,36.81
2018-10-17T16:32:02.781Z,36.84
2018-10-17T16:34:32.928Z,37.21
2018-10-17T16:37:02.242Z,37.60
2018-10-17T16:39:31.480Z,37.99
2018-10-17T16:42:00.718Z,38.88
2018-10-17T16:44:30.131Z,40.05
2018-10-17T16:46:59.563Z,39.63
2018-10-17T16:49:28.966Z,39.57
2018-10-17T16:51:58.243Z,39.62
2018-10-17T16:54:27.490Z,39.81
2018-10-17T16:56:56.815Z,39.65
2018-10-17T16:59:26.142Z,38.34
2018-10-17T17:01:56.124Z,38.96
2018-10-17T17:04:25.339Z,38.60
2018-10-17T17:06:54.429Z,39.36
2018-10-17T17:09:23.601Z,38.11
2018-10-17T17:11:52.581Z,38.00
2018-10-17T17:14:21.538Z,38.21
2018-10-17T17:16:50.705Z,38.04
2018-10-17T17:19:19.690Z,37.87
2018-10-17T17:21:48.678Z,40.66
2018-10-17T17:24:17.653Z,39.43
2018-10-17T17:26:46.734Z,38.98
2018-10-17T17:29:15.662Z,38.89
2018-10-17T17:31:44.606Z,39.63
2018-10-17T17:34:13.722Z,38.68
2018-10-17T17:36:42.670Z,40.24
2018-10-17T17:39:11.799Z,41.07
2018-10-17T17:41:40.722Z,41.28
2018-10-17T17:44:09.706Z,40.75
2018-10-17T17:46:38.699Z,40.94
2018-10-17T17:49:07.654Z,40.50
2018-10-17T17:51:36.604Z,40.31
2018-10-17T17:54:05.662Z,40.82
2018-10-17T17:56:34.594Z,40.88
2018-10-17T17:59:03.619Z,40.64
2018-10-17T18:01:32.551Z,40.50
2018-10-17T18:04:01.550Z,40.35
2018-10-17T18:06:30.529Z,40.69
2018-10-17T18:08:59.778Z,41.29
2018-10-17T18:11:28.870Z,41.21
2018-10-17T18:13:58.966Z,41.15
2018-10-17T18:16:27.919Z,40.80
2018-10-17T18:18:56.893Z,40.81
2018-10-17T18:21:25.963Z,41.59
2018-10-17T18:23:54.930Z,42.67
2018-10-17T18:26:23.919Z,42.87
2018-10-17T18:28:52.886Z,42.41
2018-10-17T18:31:21.813Z,42.49
2018-10-17T18:33:50.869Z,42.60
2018-10-17T18:36:19.836Z,42.90
2018-10-17T18:38:48.820Z,43.53
2018-10-17T18:41:17.805Z,43.87
2018-10-17T18:43:46.878Z,44.37
2018-10-17T18:46:15.926Z,45.33
2018-10-17T18:48:44.899Z,44.38
2018-10-17T18:51:13.958Z,44.28
2018-10-17T18:53:42.893Z,44.20
2018-10-17T18:56:11.891Z,43.65
2018-10-17T18:58:40.856Z,44.24
2018-10-17T19:01:09.971Z,44.45
2018-10-17T19:03:39.166Z,44.17
2018-10-17T19:06:08.350Z,45.85
2018-10-17T19:08:37.458Z,45.57
2018-10-17T19:11:07.222Z,45.46
2018-10-17T19:13:36.469Z,47.08
2018-10-17T19:16:05.857Z,46.90
2018-10-17T19:18:34.936Z,46.31
2018-10-17T19:21:04.140Z,46.71
2018-10-17T19:23:33.351Z,46.41
2018-10-17T19:26:02.556Z,46.27
2018-10-17T19:28:31.730Z,46.32
2018-10-17T19:31:00.947Z,46.39
2018-10-17T19:33:30.117Z,46.67
2018-10-17T19:35:59.407Z,46.31
2018-10-17T19:38:28.554Z,46.32
2018-10-17T19:40:57.807Z,45.88
2018-10-17T19:43:26.958Z,46.43
2018-10-17T19:45:56.107Z,46.65
2018-10-17T19:48:25.318Z,46.23
2018-10-17T19:50:54.546Z,46.22
2018-10-17T19:53:23.733Z,45.89
2018-10-17T19:55:53.016Z,46.20
2018-10-17T19:58:22.045Z,46.36
2018-10-17T20:00:51.280Z,47.02
2018-10-17T20:03:20.386Z,46.94
2018-10-17T20:05:49.595Z,47.86
2018-10-17T20:08:18.792Z,48.19
2018-10-17T20:10:48.034Z,49.19
2018-10-17T20:13:17.293Z,48.16
2018-10-17T20:15:46.506Z,48.84
2018-10-17T20:18:15.629Z,49.18
2018-10-17T20:20:44.800Z,48.09
2018-10-17T20:23:13.799Z,47.75
2018-10-17T20:25:42.794Z,49.30
2018-10-17T20:28:11.790Z,49.55
2018-10-17T20:30:40.740Z,49.57
2018-10-17T20:33:09.898Z,50.51
2018-10-17T20:35:38.822Z,50.43
2018-10-17T20:38:07.874Z,49.91
2018-10-17T20:40:36.942Z,51.59
2018-10-17T20:43:05.943Z,50.45
2018-10-17T20:45:34.884Z,50.53
2018-10-17T20:48:03.914Z,50.41
2018-10-17T20:50:32.854Z,51.16
2018-10-17T20:53:01.810Z,51.45
2018-10-17T20:55:30.734Z,51.54
2018-10-17T20:57:59.736Z,51.95
2018-10-17T21:00:29.415Z,52.55
2018-10-17T21:02:58.474Z,52.69
2018-10-17T21:05:27.384Z,53.30
2018-10-17T21:07:56.379Z,52.89
2018-10-17T21:10:25.834Z,52.75
2018-10-17T21:12:54.829Z,52.80
2018-10-17T21:15:24.038Z,52.29
2018-10-17T21:17:53.025Z,52.33
2018-10-17T21:20:21.948Z,52.58
2018-10-17T21:22:50.999Z,53.39
2018-10-17T21:25:19.966Z,53.67
2018-10-17T21:27:48.961Z,53.68
2018-10-17T21:30:18.026Z,52.96
2018-10-17T21:32:47.074Z,53.82
2018-10-17T21:35:16.050Z,52.75
2018-10-17T21:37:45.069Z,55.27
2018-10-17T21:40:14.305Z,55.43
2018-10-17T21:42:43.294Z,55.02
2018-10-17T21:45:12.267Z,54.58
2018-10-17T21:47:41.275Z,54.94
2018-10-17T21:50:10.358Z,55.41
2018-10-17T21:52:39.424Z,54.75
2018-10-17T21:55:08.370Z,55.56
2018-10-17T21:57:37.357Z,55.10
2018-10-17T22:00:07.583Z,54.73
2018-10-17T22:02:36.563Z,54.68
2018-10-17T22:05:06.987Z,54.98
2018-10-17T22:07:36.416Z,55.14
2018-10-17T22:10:05.814Z,55.26
2018-10-17T22:12:35.527Z,55.39
2018-10-17T22:15:04.789Z,55.51
2018-10-17T22:17:33.844Z,55.33
2018-10-17T22:20:02.951Z,55.68
2018-10-17T22:22:31.908Z,55.41
2018-10-17T22:25:00.962Z,55.17
2018-10-17T22:27:29.925Z,55.82
2018-10-17T22:29:58.955Z,55.82
2018-10-17T22:32:27.919Z,57.28
2018-10-17T22:34:56.923Z,56.56
2018-10-17T22:37:25.872Z,56.63
2018-10-17T22:39:54.858Z,56.18
2018-10-17T22:42:23.792Z,57.21
2018-10-17T22:44:52.746Z,55.81
2018-10-17T22:47:21.697Z,56.24
2018-10-17T22:49:51.698Z,56.07
2018-10-17T22:52:20.615Z,56.63
2018-10-17T22:54:49.621Z,56.67
2018-10-17T22:57:18.534Z,56.90
2018-10-17T22:59:47.514Z,56.98
2018-10-17T23:02:16.596Z,57.69
2018-10-17T23:04:45.486Z,57.23
2018-10-17T23:07:14.417Z,56.05
2018-10-17T23:09:43.370Z,56.55
2018-10-17T23:12:12.293Z,56.64
2018-10-17T23:14:41.242Z,55.82
2018-10-17T23:17:10.169Z,57.71
2018-10-17T23:19:39.193Z,57.60
2018-10-17T23:22:08.183Z,57.92
2018-10-17T23:24:37.149Z,58.48
2018-10-17T23:27:06.107Z,58.99
2018-10-17T23:29:35.062Z,59.73
2018-10-17T23:32:04.054Z,60.66
2018-10-17T23:34:32.998Z,60.28
2018-10-17T23:37:01.972Z,59.69
2018-10-17T23:39:30.910Z,58.40
2018-10-17T23:41:59.938Z,57.91
2018-10-17T23:44:29.097Z,58.18
2018-10-17T23:46:58.029Z,58.31
2018-10-17T23:49:26.941Z,57.78
2018-10-17T23:51:55.924Z,57.70
2018-10-17T23:54:24.840Z,59.70
2018-10-17T23:56:53.826Z,58.74
2018-10-17T23:59:22.882Z,58.36
